Time;durP1;ratioP1;P1;durP2;ratioP2;P2;SDS_P1;SDS_P2;PMS_P1;PMS_P2;Temp;Humidity;BMP_temperature;BMP_pressure;BME280_temperature;BME280_humidity;BME280_pressure;Samples;Min_cycle;Max_cycle;Signal;HPM_P1;HPM_P2
2021/04/15 00:01:41;;;;;;;5.87;3.60;;;5.50;99.90;;;;;;5117426;27;20521;-69
2021/04/15 00:04:08;;;;;;;3.35;3.05;;;5.50;99.90;;;;;;5135586;27;20215;-67
2021/04/15 00:06:33;;;;;;;4.38;2.72;;;5.50;99.90;;;;;;5117249;27;20248;-69
2021/04/15 00:09:05;;;;;;;4.57;2.87;;;5.50;99.90;;;;;;5135615;27;20191;-67
2021/04/15 00:11:32;;;;;;;2.95;2.33;;;5.50;99.90;;;;;;5135629;27;20279;-68
2021/04/15 00:13:59;;;;;;;6.85;3.20;;;5.50;99.90;;;;;;5135560;27;20729;-68
2021/04/15 00:16:27;;;;;;;5.53;4.15;;;5.50;99.90;;;;;;5117136;27;20538;-68
2021/04/15 00:18:53;;;;;;;3.72;2.25;;;5.50;99.90;;;;;;5116955;27;20575;-67
2021/04/15 00:21:19;;;;;;;4.55;2.70;;;5.50;99.90;;;;;;5135575;27;20171;-68
2021/04/15 00:23:45;;;;;;;4.80;3.20;;;5.40;99.90;;;;;;5135159;27;20210;-69
2021/04/15 00:26:13;;;;;;;4.80;2.97;;;5.30;99.90;;;;;;5135299;27;20171;-67
2021/04/15 00:28:39;;;;;;;6.03;3.45;;;5.30;99.90;;;;;;5135289;27;20193;-68
2021/04/15 00:31:06;;;;;;;2.93;2.70;;;5.30;99.90;;;;;;5135306;27;20250;-67
2021/04/15 00:33:31;;;;;;;4.03;2.75;;;5.30;99.90;;;;;;5135151;27;20203;-69
2021/04/15 00:35:57;;;;;;;8.23;4.07;;;5.20;99.90;;;;;;5116625;27;20182;-69
2021/04/15 00:38:25;;;;;;;3.93;3.50;;;5.20;99.90;;;;;;5135096;27;20203;-66
2021/04/15 00:40:56;;;;;;;2.83;2.60;;;5.20;99.90;;;;;;5135096;27;20562;-68
2021/04/15 00:43:26;;;;;;;3.10;2.80;;;5.20;99.90;;;;;;5134895;27;20684;-68
2021/04/15 00:45:53;;;;;;;3.33;3.03;;;5.20;99.90;;;;;;5134937;27;20175;-66
2021/04/15 00:48:41;;;;;;;3.30;2.15;;;5.10;99.90;;;;;;5135436;27;20570;-67
2021/04/15 00:51:32;;;;;;;3.30;2.35;;;5.10;99.90;;;;;;5134668;27;20286;-69
2021/04/15 00:54:12;;;;;;;3.08;2.53;;;5.00;99.90;;;;;;5134880;27;20199;-68
2021/04/15 00:56:39;;;;;;;4.85;3.80;;;5.00;99.90;;;;;;5135012;27;20167;-67
2021/04/15 00:59:06;;;;;;;3.22;2.70;;;4.90;99.90;;;;;;5116418;27;20210;-66
2021/04/15 01:01:33;;;;;;;4.05;1.90;;;4.90;99.90;;;;;;5134867;27;20181;-67
2021/04/15 01:03:58;;;;;;;3.63;2.00;;;5.00;99.90;;;;;;5134558;27;20218;-69
2021/04/15 01:06:24;;;;;;;2.70;2.40;;;5.00;99.90;;;;;;5134148;27;20596;-67
2021/04/15 01:08:50;;;;;;;3.60;1.93;;;5.00;99.90;;;;;;5134642;27;20198;-69
2021/04/15 01:11:48;;;;;;;5.28;4.10;;;4.90;99.90;;;;;;5134745;28;20167;-68
2021/04/15 01:14:24;;;;;;;4.80;3.53;;;4.80;99.90;;;;;;5134740;28;20195;-68
2021/04/15 01:17:07;;;;;;;4.25;3.30;;;4.80;99.90;;;;;;5134886;28;20167;-66
2021/04/15 01:19:38;;;;;;;3.15;2.30;;;4.90;99.90;;;;;;5134626;28;20206;-68
2021/04/15 01:22:33;;;;;;;4.38;2.97;;;4.80;99.90;;;;;;5134866;28;20175;-66
2021/04/15 01:25:23;;;;;;;3.05;2.42;;;4.80;99.90;;;;;;5134625;28;20234;-68
2021/04/15 01:27:52;;;;;;;3.92;2.97;;;4.80;99.90;;;;;;5116228;28;20203;-66
2021/04/15 01:30:25;;;;;;;7.85;3.63;;;4.80;99.90;;;;;;5134560;28;20604;-68
2021/04/15 01:33:08;;;;;;;3.75;3.38;;;4.80;99.90;;;;;;5116242;28;20198;-66
2021/04/15 01:36:03;;;;;;;6.60;3.60;;;4.80;99.90;;;;;;5116010;28;20183;-68
2021/04/15 01:38:38;;;;;;;6.57;3.45;;;4.80;99.90;;;;;;5090347;28;20206;-69
2021/04/15 01:41:22;;;;;;;5.03;2.50;;;4.80;99.90;;;;;;5134450;28;20155;-67
2021/04/15 01:43:55;;;;;;;2.72;2.47;;;4.80;99.90;;;;;;5134339;28;20569;-66
2021/04/15 01:46:26;;;;;;;3.33;2.58;;;4.80;99.90;;;;;;5134350;28;20202;-69
2021/04/15 01:48:53;;;;;;;3.03;2.78;;;4.90;99.90;;;;;;5115941;28;20748;-66
2021/04/15 01:51:26;;;;;;;3.30;2.63;;;4.90;99.90;;;;;;5115895;28;20284;-69
2021/04/15 01:54:14;;;;;;;2.47;2.38;;;4.90;99.90;;;;;;5134246;28;20207;-66
2021/04/15 01:56:45;;;;;;;3.00;2.70;;;4.80;99.90;;;;;;5134336;28;20174;-67
2021/04/15 01:59:49;;;;;;;3.20;2.15;;;4.80;99.90;;;;;;5134321;28;20241;-66
2021/04/15 02:02:23;;;;;;;4.22;2.92;;;4.70;99.90;;;;;;5102060;28;20667;-68
2021/04/15 02:05:11;;;;;;;4.90;2.85;;;4.70;99.90;;;;;;5134134;28;20214;-68
2021/04/15 02:07:43;;;;;;;2.33;2.13;;;4.70;99.90;;;;;;5115227;28;20196;-68
2021/04/15 02:10:12;;;;;;;2.83;1.50;;;4.70;99.90;;;;;;5134252;28;20242;-70
2021/04/15 02:12:42;;;;;;;5.15;4.10;;;4.70;99.90;;;;;;5134375;28;20182;-66
2021/04/15 02:15:13;;;;;;;3.00;2.30;;;4.70;99.90;;;;;;5134161;28;20178;-67
2021/04/15 02:17:41;;;;;;;2.78;2.35;;;4.70;99.90;;;;;;5118442;27;20175;-68
2021/04/15 02:20:14;;;;;;;3.20;2.15;;;4.70;99.90;;;;;;5137749;27;20172;-69
2021/04/15 02:22:54;;;;;;;4.85;2.60;;;4.70;99.90;;;;;;5119489;27;20220;-68
2021/04/15 02:25:45;;;;;;;4.13;3.72;;;4.70;99.90;;;;;;5137731;27;20202;-66
2021/04/15 02:28:17;;;;;;;2.70;2.50;;;4.70;99.90;;;;;;5138223;27;20187;-66
2021/04/15 02:30:45;;;;;;;3.55;2.85;;;4.60;99.90;;;;;;5137689;27;20620;-66
2021/04/15 02:33:25;;;;;;;3.83;3.38;;;4.60;99.90;;;;;;5137937;27;20199;-67
2021/04/15 02:35:54;;;;;;;2.95;2.72;;;4.50;99.90;;;;;;5137523;27;20182;-66
2021/04/15 02:38:37;;;;;;;4.07;2.75;;;4.50;99.90;;;;;;5137916;27;20223;-66
2021/04/15 02:41:06;;;;;;;4.60;2.90;;;4.50;99.90;;;;;;5137476;27;20182;-68
2021/04/15 02:43:51;;;;;;;3.15;2.67;;;4.40;99.90;;;;;;5118833;27;20222;-68
2021/04/15 02:46:34;;;;;;;4.72;3.30;;;4.40;99.90;;;;;;5119271;27;20230;-68
2021/04/15 02:49:03;;;;;;;7.47;3.65;;;4.30;99.90;;;;;;5118896;27;20698;-66
2021/04/15 02:51:34;;;;;;;7.60;4.30;;;4.40;99.90;;;;;;5137196;27;20215;-66
2021/04/15 02:54:21;;;;;;;5.15;2.90;;;4.40;99.90;;;;;;5137229;27;20195;-68
2021/04/15 02:56:55;;;;;;;4.40;3.15;;;4.50;99.90;;;;;;5137023;27;20179;-68
2021/04/15 02:59:27;;;;;;;4.28;2.72;;;4.40;99.90;;;;;;5118616;27;20205;-68
2021/04/15 03:02:04;;;;;;;5.85;3.13;;;4.40;99.90;;;;;;5137281;27;20644;-67
2021/04/15 03:04:31;;;;;;;3.72;2.28;;;4.50;99.90;;;;;;5118346;27;20222;-66
2021/04/15 03:06:58;;;;;;;2.90;1.77;;;4.40;99.90;;;;;;5137046;27;20237;-66
2021/04/15 03:09:25;;;;;;;5.07;3.00;;;4.40;99.90;;;;;;5118452;27;20293;-68
2021/04/15 03:11:55;;;;;;;4.60;2.55;;;4.40;99.90;;;;;;5136996;27;20174;-66
2021/04/15 03:14:26;;;;;;;2.30;2.10;;;4.40;99.90;;;;;;5118293;27;20196;-66
2021/04/15 03:16:58;;;;;;;3.97;3.28;;;4.40;99.90;;;;;;5136887;27;20175;-68
2021/04/15 03:19:29;;;;;;;4.85;2.75;;;4.40;99.90;;;;;;5136635;27;20195;-69
2021/04/15 03:21:57;;;;;;;3.78;3.42;;;4.40;99.90;;;;;;5136869;27;20207;-67
2021/04/15 03:24:30;;;;;;;5.15;2.05;;;4.50;99.90;;;;;;5117967;27;20307;-66
2021/04/15 03:27:31;;;;;;;3.92;3.60;;;4.40;99.90;;;;;;5136762;27;20195;-66
2021/04/15 03:30:03;;;;;;;4.40;3.05;;;4.40;99.90;;;;;;5117597;27;20544;-67
2021/04/15 03:32:35;;;;;;;3.45;3.13;;;4.40;99.90;;;;;;5136746;27;20172;-67
2021/04/15 03:35:34;;;;;;;4.85;4.25;;;4.40;99.90;;;;;;5136407;27;20183;-68
2021/04/15 03:38:26;;;;;;;1.83;1.73;;;4.40;99.90;;;;;;5136769;27;20199;-68
2021/04/15 03:41:09;;;;;;;3.03;2.80;;;4.50;99.90;;;;;;5117816;27;20239;-69
2021/04/15 03:43:46;;;;;;;3.55;2.97;;;4.50;99.90;;;;;;5136086;27;20226;-66
2021/04/15 03:46:33;;;;;;;1.52;1.42;;;4.50;99.90;;;;;;5136137;27;20163;-69
2021/04/15 03:49:23;;;;;;;4.40;4.00;;;4.50;99.90;;;;;;5136062;27;20564;-68
2021/04/15 03:51:52;;;;;;;4.85;3.95;;;4.50;99.90;;;;;;5116991;27;20410;-66
2021/04/15 03:54:27;;;;;;;4.63;2.90;;;4.50;99.90;;;;;;5135989;27;20187;-68
2021/04/15 03:56:58;;;;;;;3.10;2.80;;;4.50;99.90;;;;;;5117544;27;20179;-66
2021/04/15 03:59:42;;;;;;;2.50;2.30;;;4.50;99.90;;;;;;5135822;27;20191;-66
2021/04/15 04:02:32;;;;;;;4.43;2.47;;;4.40;99.90;;;;;;5136229;27;20183;-69
2021/04/15 04:05:06;;;;;;;3.35;2.70;;;4.40;99.90;;;;;;5135810;27;20207;-66
2021/04/15 04:07:42;;;;;;;6.45;3.50;;;4.40;99.90;;;;;;5136122;27;20632;-68
2021/04/15 04:10:17;;;;;;;3.13;2.08;;;4.40;99.90;;;;;;5117647;27;20584;-67
2021/04/15 04:13:09;;;;;;;3.70;2.33;;;4.40;99.90;;;;;;5135470;27;20702;-69
2021/04/15 04:15:40;;;;;;;3.17;2.80;;;4.40;99.90;;;;;;5135579;27;20680;-66
2021/04/15 04:18:35;;;;;;;9.85;3.50;;;4.40;99.90;;;;;;5136099;27;20307;-69
2021/04/15 04:21:21;;;;;;;3.90;2.72;;;4.40;99.90;;;;;;5135151;27;20187;-68
2021/04/15 04:23:58;;;;;;;3.92;2.95;;;4.30;99.90;;;;;;5135341;27;20241;-68
2021/04/15 04:26:44;;;;;;;2.15;1.95;;;4.10;99.90;;;;;;5135418;27;20170;-66
2021/04/15 04:29:20;;;;;;;3.78;2.67;;;4.10;99.90;;;;;;5135277;27;20194;-66
2021/04/15 04:31:49;;;;;;;3.80;3.38;;;4.10;99.90;;;;;;5135427;27;20197;-66
2021/04/15 04:34:17;;;;;;;2.60;2.03;;;4.00;99.90;;;;;;5116740;27;20218;-67
2021/04/15 04:36:45;;;;;;;3.65;2.50;;;4.10;99.90;;;;;;5135254;27;20167;-69
2021/04/15 04:39:14;;;;;;;4.63;2.97;;;4.80;99.90;;;;;;5135000;27;20277;-66
2021/04/15 04:42:15;;;;;;;1.83;0.88;;;5.60;99.90;;;;;;5115865;27;20520;-66
2021/04/15 04:44:42;;;;;;;3.03;2.25;;;5.70;99.90;;;;;;5134984;27;20203;-66
2021/04/15 04:47:23;;;;;;;2.72;1.77;;;6.10;99.90;;;;;;5116750;27;20537;-66
2021/04/15 04:50:08;;;;;;;2.33;1.05;;;6.70;99.90;;;;;;5134901;27;20220;-69
2021/04/15 04:52:34;;;;;;;3.63;1.63;;;7.10;99.90;;;;;;5135017;27;20235;-66
2021/04/15 04:55:05;;;;;;;3.17;2.80;;;7.40;99.90;;;;;;5116352;27;20670;-66
2021/04/15 04:57:36;;;;;;;2.88;1.50;;;7.50;99.90;;;;;;5127159;27;20187;-67
2021/04/15 05:00:08;;;;;;;3.22;2.40;;;5.80;99.90;;;;;;5109562;28;20168;-66
2021/04/15 05:02:34;;;;;;;2.95;2.75;;;5.00;99.90;;;;;;5114302;28;20168;-68
2021/04/15 05:05:21;;;;;;;6.33;4.00;;;4.70;99.90;;;;;;5114071;28;20212;-69
2021/04/15 05:07:54;;;;;;;3.50;2.53;;;4.60;99.90;;;;;;5094022;28;20456;-66
2021/04/15 05:10:23;;;;;;;8.25;7.38;;;4.50;99.90;;;;;;5114092;28;20221;-68
2021/04/15 05:12:51;;;;;;;5.88;5.20;;;4.50;99.90;;;;;;5114996;28;20195;-68
2021/04/15 05:15:17;;;;;;;30.05;16.35;;;4.60;99.90;;;;;;5114109;28;20229;-68
2021/04/15 05:17:45;;;;;;;9.55;7.30;;;4.60;99.90;;;;;;5134655;28;20660;-69
2021/04/15 05:20:15;;;;;;;3.55;2.20;;;4.60;99.90;;;;;;5114409;28;20255;-66
2021/04/15 05:23:05;;;;;;;4.68;2.92;;;4.60;99.90;;;;;;5115200;28;20195;-66
2021/04/15 05:25:42;;;;;;;4.05;2.80;;;4.60;99.90;;;;;;5094869;28;20274;-68
2021/04/15 05:28:12;;;;;;;3.40;2.80;;;4.60;99.90;;;;;;5116036;28;20794;-66
2021/04/15 05:30:47;;;;;;;3.80;2.60;;;4.70;99.90;;;;;;5131993;28;20175;-68
2021/04/15 05:33:22;;;;;;;2.75;2.13;;;4.50;99.90;;;;;;5113091;28;20870;-67
2021/04/15 05:36:19;;;;;;;2.80;2.35;;;4.50;99.90;;;;;;5111794;28;20186;-65
2021/04/15 05:38:48;;;;;;;6.90;4.63;;;4.60;99.90;;;;;;5113045;28;20564;-65
2021/04/15 05:41:35;;;;;;;4.78;4.10;;;4.50;99.90;;;;;;5111733;28;20637;-67
2021/04/15 05:44:07;;;;;;;8.98;5.85;;;4.40;99.90;;;;;;5100722;28;20579;-67
2021/04/15 05:46:45;;;;;;;4.18;3.10;;;4.40;99.90;;;;;;5109005;28;20176;-67
2021/04/15 05:49:29;;;;;;;9.88;4.20;;;4.40;99.90;;;;;;5127336;28;20291;-69
2021/04/15 05:52:24;;;;;;;3.55;3.20;;;4.50;99.90;;;;;;5095421;28;20232;-66
2021/04/15 05:54:52;;;;;;;3.10;2.80;;;4.50;99.90;;;;;;5086912;28;20181;-65
2021/04/15 05:57:23;;;;;;;4.55;3.00;;;4.50;99.90;;;;;;5085191;28;20203;-65
2021/04/15 05:59:54;;;;;;;4.03;3.60;;;4.50;99.90;;;;;;5089853;28;20185;-65
2021/04/15 06:02:33;;;;;;;8.75;4.75;;;4.60;99.90;;;;;;5092337;28;20172;-68
2021/04/15 06:05:19;;;;;;;7.50;4.47;;;4.60;99.90;;;;;;5088714;28;20208;-65
2021/04/15 06:07:48;;;;;;;5.20;4.70;;;4.70;99.90;;;;;;5075727;28;20300;-65
2021/04/15 06:10:17;;;;;;;5.30;3.15;;;4.60;99.90;;;;;;5076709;28;20538;-67
2021/04/15 06:13:04;;;;;;;3.75;3.40;;;4.60;99.90;;;;;;5087203;28;20215;-67
2021/04/15 06:15:36;;;;;;;3.00;2.80;;;4.70;99.90;;;;;;5092356;28;20181;-67
2021/04/15 06:18:19;;;;;;;8.82;4.00;;;4.60;99.90;;;;;;5094519;28;20200;-65
2021/04/15 06:20:48;;;;;;;2.60;2.40;;;4.70;99.90;;;;;;5095916;28;20259;-68
2021/04/15 06:23:18;;;;;;;4.07;3.65;;;4.70;99.90;;;;;;5093861;28;20558;-67
2021/04/15 06:25:46;;;;;;;3.83;3.42;;;4.60;99.90;;;;;;5093466;28;20191;-68
2021/04/15 06:28:22;;;;;;;9.32;5.85;;;4.70;99.90;;;;;;5086254;28;20244;-68
2021/04/15 06:31:24;;;;;;;3.47;3.03;;;4.60;99.90;;;;;;5076619;28;20192;-68
2021/04/15 06:33:53;;;;;;;4.30;2.78;;;4.50;99.90;;;;;;5078320;28;20288;-68
2021/04/15 06:36:30;;;;;;;4.13;3.63;;;4.60;99.90;;;;;;5073462;28;20184;-65
2021/04/15 06:39:07;;;;;;;5.82;4.82;;;4.80;99.90;;;;;;5091880;28;20225;-67
2021/04/15 06:42:01;;;;;;;6.20;3.78;;;4.90;99.90;;;;;;5090898;28;20646;-67
2021/04/15 06:44:59;;;;;;;5.45;4.10;;;5.00;99.90;;;;;;5075384;28;20212;-69
2021/04/15 06:47:33;;;;;;;9.05;3.78;;;5.30;99.90;;;;;;5079518;28;20720;-66
2021/04/15 06:50:25;;;;;;;4.28;3.67;;;5.40;99.90;;;;;;5089644;28;20191;-66
2021/04/15 06:53:19;;;;;;;5.22;4.18;;;5.50;99.90;;;;;;5089539;28;20253;-66
2021/04/15 06:56:11;;;;;;;7.43;5.00;;;5.70;99.90;;;;;;5075192;28;20177;-67
2021/04/15 06:58:59;;;;;;;11.07;4.75;;;6.00;99.90;;;;;;5086852;28;20236;-67
2021/04/15 07:01:31;;;;;;;4.75;4.30;;;6.20;99.90;;;;;;5097640;28;20580;-66
2021/04/15 07:04:08;;;;;;;4.72;3.70;;;6.30;99.90;;;;;;5082528;28;20220;-67
2021/04/15 07:06:46;;;;;;;3.65;3.33;;;6.50;99.90;;;;;;5094527;28;20184;-66
2021/04/15 07:09:48;;;;;;;6.88;3.50;;;6.70;99.90;;;;;;5095141;28;20204;-66
2021/04/15 07:12:48;;;;;;;6.20;4.53;;;6.90;99.90;;;;;;5087309;28;20184;-66
2021/04/15 07:15:37;;;;;;;5.00;4.18;;;6.90;99.90;;;;;;5093804;28;20780;-66
2021/04/15 07:18:34;;;;;;;4.80;2.92;;;7.10;99.90;;;;;;5095583;28;20690;-68
2021/04/15 07:21:06;;;;;;;8.80;4.20;;;7.10;99.90;;;;;;5085417;28;20192;-66
2021/04/15 07:23:50;;;;;;;6.13;4.40;;;7.20;99.90;;;;;;5089525;28;20220;-67
2021/04/15 07:26:41;;;;;;;7.50;6.03;;;7.30;99.90;;;;;;5082840;28;20216;-68
2021/04/15 07:29:43;;;;;;;5.43;4.38;;;7.30;99.90;;;;;;5079582;28;20204;-65
2021/04/15 07:32:49;;;;;;;8.27;4.45;;;7.40;99.90;;;;;;5080655;28;20255;-66
2021/04/15 07:35:39;;;;;;;6.78;5.00;;;7.40;99.90;;;;;;5083696;28;20180;-68
2021/04/15 07:38:30;;;;;;;5.20;4.75;;;7.50;99.90;;;;;;5082869;28;20284;-68
2021/04/15 07:41:17;;;;;;;6.50;4.38;;;7.60;99.90;;;;;;5083383;28;20185;-66
2021/04/15 07:43:54;;;;;;;7.57;6.85;;;7.40;99.90;;;;;;5081835;28;20244;-67
2021/04/15 07:46:53;;;;;;;4.30;3.60;;;7.10;99.90;;;;;;5082781;28;20647;-68
2021/04/15 07:49:43;;;;;;;5.10;4.20;;;7.00;99.90;;;;;;5094379;28;20197;-67
2021/04/15 07:52:38;;;;;;;7.65;4.93;;;7.20;99.90;;;;;;5128567;27;20570;-67
2021/04/15 07:55:07;;;;;;;8.95;4.72;;;7.10;99.90;;;;;;5124668;27;20271;-67
2021/04/15 07:57:57;;;;;;;5.20;4.50;;;7.00;99.90;;;;;;5113144;28;20531;-66
2021/04/15 08:00:22;;;;;;;6.00;4.65;;;6.90;99.90;;;;;;5121603;27;20189;-66
2021/04/15 08:02:53;;;;;;;7.77;5.37;;;6.90;99.90;;;;;;5111299;27;20218;-68
2021/04/15 08:05:46;;;;;;;11.38;7.20;;;7.10;99.90;;;;;;5134188;27;20676;-66
2021/04/15 08:08:40;;;;;;;9.80;6.25;;;7.50;99.90;;;;;;5130761;27;20576;-65
2021/04/15 08:11:05;;;;;;;8.70;5.03;;;7.80;99.90;;;;;;5118697;27;20202;-68
2021/04/15 08:13:54;;;;;;;10.60;6.27;;;7.80;99.90;;;;;;5114323;28;20721;-67
2021/04/15 08:16:38;;;;;;;7.60;4.50;;;7.80;99.90;;;;;;5101128;27;20198;-68
2021/04/15 08:19:57;;;;;;;7.32;5.82;;;7.90;99.90;;;;;;5122929;27;20215;-70
2021/04/15 08:23:01;;;;;;;6.97;4.53;;;7.80;99.90;;;;;;5051544;28;20235;-66
2021/04/15 08:25:45;;;;;;;7.60;5.00;;;7.50;99.90;;;;;;5133162;27;20702;-68
2021/04/15 08:28:39;;;;;;;8.32;6.15;;;7.30;99.90;;;;;;5116301;27;20720;-66
2021/04/15 08:31:46;;;;;;;7.55;5.78;;;7.40;99.90;;;;;;5134036;27;20171;-68
2021/04/15 08:34:41;;;;;;;6.00;5.03;;;7.30;99.90;;;;;;5134566;27;20210;-67
2021/04/15 08:37:43;;;;;;;5.75;5.00;;;7.40;99.90;;;;;;5100452;28;20186;-65
2021/04/15 08:40:29;;;;;;;6.85;5.80;;;7.20;99.90;;;;;;5113966;28;20175;-66
2021/04/15 08:43:29;;;;;;;5.95;5.15;;;7.30;99.90;;;;;;5116198;27;20195;-67
2021/04/15 08:46:17;;;;;;;9.70;6.60;;;7.30;99.90;;;;;;5119994;27;20287;-66
2021/04/15 08:49:22;;;;;;;7.65;6.28;;;7.10;99.90;;;;;;5127922;27;20798;-69
2021/04/15 08:52:19;;;;;;;7.68;5.28;;;7.10;99.90;;;;;;5098346;28;20243;-68
2021/04/15 08:55:38;;;;;;;4.25;3.63;;;7.20;99.90;;;;;;5101612;28;20207;-65
2021/04/15 08:58:44;;;;;;;11.10;6.93;;;7.90;99.90;;;;;;5057462;28;20208;-65
2021/04/15 09:01:21;;;;;;;8.77;6.00;;;8.10;99.90;;;;;;5099697;28;20179;-67
2021/04/15 09:03:50;;;;;;;8.02;5.55;;;8.10;99.90;;;;;;5109100;28;20215;-66
2021/04/15 09:06:24;;;;;;;12.80;6.70;;;8.30;99.90;;;;;;5106061;28;20171;-65
2021/04/15 09:09:01;;;;;;;12.95;6.40;;;8.20;99.90;;;;;;5109534;28;20204;-65
2021/04/15 09:11:52;;;;;;;8.63;5.80;;;7.90;99.90;;;;;;5099028;28;20176;-67
2021/04/15 09:14:48;;;;;;;8.68;6.53;;;7.80;99.90;;;;;;5098946;28;20191;-66
2021/04/15 09:17:22;;;;;;;7.30;4.68;;;7.70;99.90;;;;;;5104442;28;20547;-66
2021/04/15 09:19:47;;;;;;;9.25;5.18;;;7.90;99.90;;;;;;5098909;28;20192;-68
2021/04/15 09:22:18;;;;;;;12.70;8.50;;;8.10;99.90;;;;;;5103173;28;20206;-66
2021/04/15 09:24:58;;;;;;;8.18;5.55;;;8.20;99.90;;;;;;5096660;28;20224;-68
2021/04/15 09:27:30;;;;;;;12.02;8.43;;;8.20;99.90;;;;;;5097547;28;20543;-66
2021/04/15 09:30:14;;;;;;;12.57;7.65;;;8.10;99.90;;;;;;5102452;28;20274;-67
2021/04/15 09:32:56;;;;;;;8.23;6.55;;;7.90;99.90;;;;;;5099216;28;20175;-68
2021/04/15 09:35:46;;;;;;;9.27;6.32;;;7.90;99.90;;;;;;5100508;28;20192;-68
2021/04/15 09:38:39;;;;;;;18.45;7.65;;;7.90;99.90;;;;;;5104835;28;20244;-66
2021/04/15 09:41:28;;;;;;;9.07;5.28;;;8.10;99.90;;;;;;5103139;28;20587;-66
2021/04/15 09:44:48;;;;;;;7.35;5.10;;;8.20;99.90;;;;;;5106145;28;20216;-69
2021/04/15 09:47:28;;;;;;;9.35;6.22;;;8.60;99.90;;;;;;5052068;28;20316;-66
2021/04/15 09:50:21;;;;;;;5.30;4.30;;;8.80;99.90;;;;;;5103677;28;20188;-68
2021/04/15 09:53:05;;;;;;;5.90;4.70;;;8.90;99.90;;;;;;5102484;28;20223;-68
2021/04/15 09:55:43;;;;;;;5.35;4.85;;;9.10;99.90;;;;;;5105414;28;20192;-67
2021/04/15 09:58:36;;;;;;;7.82;5.55;;;9.10;99.90;;;;;;5100884;28;20222;-68
2021/04/15 10:01:08;;;;;;;7.65;4.55;;;8.90;99.90;;;;;;5097284;28;20274;-67
2021/04/15 10:03:57;;;;;;;8.27;6.75;;;8.50;99.90;;;;;;5102693;28;20602;-66
2021/04/15 10:06:27;;;;;;;6.70;5.35;;;8.00;99.90;;;;;;5101188;28;20605;-66
2021/04/15 10:08:56;;;;;;;6.07;5.47;;;7.90;99.90;;;;;;5099996;28;20225;-67
2021/04/15 10:11:43;;;;;;;9.18;6.55;;;7.80;99.90;;;;;;5099900;28;20189;-67
2021/04/15 10:14:43;;;;;;;4.95;4.30;;;7.80;99.90;;;;;;5102315;28;20207;-67
2021/04/15 10:17:37;;;;;;;6.63;4.65;;;8.00;99.90;;;;;;5098249;28;20173;-69
2021/04/15 10:20:16;;;;;;;8.20;4.53;;;8.20;99.90;;;;;;5098180;28;20172;-69
2021/04/15 10:22:52;;;;;;;6.80;5.05;;;8.30;99.90;;;;;;5096947;28;20191;-69
2021/04/15 10:25:27;;;;;;;7.60;5.72;;;8.50;99.90;;;;;;5097447;28;20265;-69
2021/04/15 10:28:04;;;;;;;12.10;5.15;;;8.50;99.90;;;;;;5095256;28;20199;-66
2021/04/15 10:31:00;;;;;;;9.40;5.20;;;8.70;99.90;;;;;;5095608;28;20187;-67
2021/04/15 10:33:59;;;;;;;4.20;3.78;;;8.60;99.90;;;;;;5096290;28;20226;-64
2021/04/15 10:36:52;;;;;;;5.68;3.88;;;8.50;99.90;;;;;;5092056;28;20183;-67
2021/04/15 10:39:27;;;;;;;4.72;4.30;;;8.50;99.90;;;;;;5104170;28;20204;-65
2021/04/15 10:41:55;;;;;;;7.25;5.47;;;8.60;99.90;;;;;;5111313;28;20439;-65
2021/04/15 10:44:59;;;;;;;4.32;3.72;;;8.60;99.90;;;;;;5102221;28;20238;-67
2021/04/15 10:48:00;;;;;;;6.80;4.30;;;8.60;99.90;;;;;;5110389;28;20176;-67
2021/04/15 10:50:25;;;;;;;4.15;2.60;;;8.80;99.90;;;;;;5103465;27;20693;-67
2021/04/15 10:53:32;;;;;;;5.80;4.17;;;9.10;99.90;;;;;;5115165;27;20203;-68
2021/04/15 10:56:09;;;;;;;5.63;4.20;;;9.30;99.90;;;;;;5101135;28;20195;-67
2021/04/15 10:58:41;;;;;;;4.43;3.90;;;9.60;99.90;;;;;;5100057;27;20294;-67
2021/04/15 11:01:21;;;;;;;5.03;3.53;;;9.80;99.90;;;;;;5122931;27;20191;-67
2021/04/15 11:03:47;;;;;;;4.63;3.83;;;9.90;99.90;;;;;;5119043;27;20309;-66
2021/04/15 11:06:46;;;;;;;4.95;3.60;;;10.10;99.90;;;;;;5122237;27;20178;-66
2021/04/15 11:09:33;;;;;;;5.97;4.93;;;10.10;99.90;;;;;;5120566;27;20567;-67
2021/04/15 11:12:13;;;;;;;5.50;4.95;;;10.10;99.90;;;;;;5124182;27;20210;-67
2021/04/15 11:14:45;;;;;;;6.78;4.53;;;9.30;99.90;;;;;;5123780;27;20214;-69
2021/04/15 11:17:16;;;;;;;2.50;2.30;;;8.40;99.90;;;;;;5124838;27;20652;-68
2021/04/15 11:19:43;;;;;;;3.75;3.35;;;8.00;99.90;;;;;;5119147;27;20249;-68
2021/04/15 11:22:14;;;;;;;5.18;3.83;;;7.70;99.90;;;;;;5110832;27;20630;-72
2021/04/15 11:24:42;;;;;;;3.80;2.58;;;7.50;99.90;;;;;;5119082;27;20223;-67
2021/04/15 11:27:09;;;;;;;7.32;4.93;;;7.50;99.90;;;;;;5121612;27;20182;-69
2021/04/15 11:29:46;;;;;;;3.80;3.45;;;7.50;99.90;;;;;;5121360;27;20195;-67
2021/04/15 11:32:21;;;;;;;4.95;3.53;;;7.70;99.90;;;;;;5120894;27;20171;-68
2021/04/15 11:35:05;;;;;;;5.53;3.70;;;8.00;99.90;;;;;;5121240;27;20191;-69
2021/04/15 11:37:31;;;;;;;8.18;4.90;;;8.30;99.90;;;;;;5098741;27;20232;-66
2021/04/15 11:40:33;;;;;;;8.80;4.85;;;8.50;99.90;;;;;;5119901;27;20187;-67
2021/04/15 11:43:31;;;;;;;4.88;3.40;;;9.00;99.90;;;;;;5123539;27;20206;-69
2021/04/15 11:46:11;;;;;;;6.70;5.00;;;9.40;99.90;;;;;;5104272;27;20194;-67
2021/04/15 11:48:37;;;;;;;5.30;3.90;;;9.90;99.90;;;;;;5104935;27;20203;-67
2021/04/15 11:51:18;;;;;;;4.10;3.63;;;10.00;99.90;;;;;;5118496;27;20557;-66
2021/04/15 11:53:47;;;;;;;4.75;4.28;;;9.80;99.90;;;;;;5101739;27;20565;-68
2021/04/15 11:56:32;;;;;;;6.90;4.63;;;10.00;99.90;;;;;;5117093;27;20668;-68
2021/04/15 11:59:19;;;;;;;4.20;2.95;;;10.00;99.90;;;;;;5118681;27;20542;-66
2021/04/15 12:01:45;;;;;;;5.72;4.13;;;10.00;99.90;;;;;;5111733;27;20175;-66
2021/04/15 12:04:27;;;;;;;5.20;3.45;;;10.10;99.90;;;;;;5117469;27;20225;-67
2021/04/15 12:07:08;;;;;;;5.78;3.60;;;10.30;99.90;;;;;;5122702;27;20237;-68
2021/04/15 12:09:39;;;;;;;6.60;4.72;;;10.40;99.90;;;;;;5126235;27;20545;-67
2021/04/15 12:12:24;;;;;;;4.28;3.85;;;10.30;99.90;;;;;;5118500;27;20576;-66
2021/04/15 12:14:51;;;;;;;5.53;3.78;;;10.10;99.90;;;;;;5110910;27;20184;-66
2021/04/15 12:17:37;;;;;;;3.40;3.00;;;10.00;99.90;;;;;;5129127;27;20188;-68
2021/04/15 12:20:17;;;;;;;6.15;3.97;;;10.10;99.90;;;;;;5099471;28;20188;-66
2021/04/15 12:22:42;;;;;;;8.38;3.40;;;10.10;99.90;;;;;;5116334;27;20223;-67
2021/04/15 12:25:30;;;;;;;5.73;3.90;;;10.00;99.90;;;;;;5125606;27;20287;-65
2021/04/15 12:28:17;;;;;;;6.32;5.20;;;9.80;99.90;;;;;;5117240;27;20195;-67
2021/04/15 12:30:43;;;;;;;3.03;1.92;;;9.20;99.90;;;;;;5127510;27;20275;-66
2021/04/15 12:33:20;;;;;;;2.20;1.60;;;8.60;99.90;;;;;;5116408;27;20286;-66
2021/04/15 12:36:06;;;;;;;1.73;1.63;;;8.10;99.90;;;;;;5120281;27;20190;-68
2021/04/15 12:38:40;;;;;;;1.88;1.75;;;8.00;99.90;;;;;;5120725;27;20219;-66
2021/04/15 12:41:08;;;;;;;2.35;2.10;;;8.10;99.90;;;;;;5122224;27;20176;-64
2021/04/15 12:43:50;;;;;;;4.03;2.72;;;8.20;99.90;;;;;;5118645;27;20203;-65
2021/04/15 12:46:26;;;;;;;10.68;2.30;;;8.40;99.90;;;;;;5121763;27;20677;-67
2021/04/15 12:48:53;;;;;;;3.53;2.55;;;8.50;99.90;;;;;;5116271;27;20214;-68
2021/04/15 12:51:40;;;;;;;6.40;4.28;;;8.60;99.90;;;;;;5101564;28;20232;-68
2021/04/15 12:54:13;;;;;;;4.50;3.75;;;8.80;99.90;;;;;;5122278;27;20230;-64
2021/04/15 12:56:57;;;;;;;4.03;3.63;;;8.70;99.90;;;;;;5120406;27;20294;-67
2021/04/15 12:59:30;;;;;;;8.95;5.00;;;8.80;99.90;;;;;;5117048;27;20214;-66
2021/04/15 13:01:57;;;;;;;10.10;4.95;;;8.90;99.90;;;;;;5116718;27;20192;-65
2021/04/15 13:04:31;;;;;;;5.13;4.63;;;9.00;99.90;;;;;;5120444;27;20310;-67
2021/04/15 13:07:00;;;;;;;2.95;2.60;;;8.90;99.90;;;;;;5110332;28;20201;-64
2021/04/15 13:09:28;;;;;;;4.95;4.07;;;8.90;99.90;;;;;;5103243;28;20673;-64
2021/04/15 13:11:55;;;;;;;6.68;3.28;;;9.00;99.90;;;;;;5097432;28;20179;-64
2021/04/15 13:14:52;;;;;;;5.38;3.30;;;9.10;99.90;;;;;;5115705;27;20248;-66
2021/04/15 13:17:48;;;;;;;3.88;3.40;;;9.60;99.90;;;;;;5095881;28;20279;-66
2021/04/15 13:20:23;;;;;;;5.53;3.53;;;9.80;99.90;;;;;;5093713;28;20623;-65
2021/04/15 13:23:16;;;;;;;8.18;4.43;;;9.60;99.90;;;;;;5107484;28;20286;-67
2021/04/15 13:25:51;;;;;;;5.40;4.20;;;9.30;99.90;;;;;;5114903;28;20223;-68
2021/04/15 13:28:19;;;;;;;3.72;2.65;;;9.60;99.90;;;;;;5115882;28;20683;-64
2021/04/15 13:30:52;;;;;;;4.78;3.08;;;9.90;99.90;;;;;;5118929;28;20222;-64
2021/04/15 13:33:21;;;;;;;3.15;2.05;;;9.90;99.90;;;;;;5100326;28;20207;-65
2021/04/15 13:35:57;;;;;;;2.67;2.47;;;10.20;99.90;;;;;;5117240;28;20551;-65
2021/04/15 13:38:26;;;;;;;3.00;2.45;;;10.60;99.90;;;;;;5122178;28;20606;-68
2021/04/15 13:41:08;;;;;;;3.67;1.90;;;10.90;99.90;;;;;;5098510;28;20725;-66
2021/04/15 13:43:48;;;;;;;2.60;2.40;;;10.90;99.90;;;;;;5115901;28;20218;-64
2021/04/15 13:46:23;;;;;;;2.00;1.75;;;10.60;99.90;;;;;;5116817;28;20184;-64
2021/04/15 13:48:51;;;;;;;2.60;2.40;;;10.30;99.90;;;;;;5101346;28;20213;-64
2021/04/15 13:51:31;;;;;;;1.55;1.35;;;10.40;99.90;;;;;;5120067;28;20306;-65
2021/04/15 13:54:05;;;;;;;4.57;2.70;;;10.60;99.90;;;;;;5097914;28;20199;-65
2021/04/15 13:57:00;;;;;;;1.70;1.50;;;10.60;99.90;;;;;;5114773;27;20655;-65
2021/04/15 13:59:42;;;;;;;1.60;1.50;;;10.50;99.90;;;;;;5118520;27;20334;-65